sensor_id;sensor_type;location;lat;lon;timestamp;temperature;humidity
71039;SHT30;58692;43.212;27.908;2023-04-02T00:05:30;11.55;78.06
71039;SHT30;58692;43.212;27.908;2023-04-02T00:07:57;11.44;78.36
71039;SHT30;58692;43.212;27.908;2023-04-02T00:10:30;11.38;78.87
71039;SHT30;58692;43.212;27.908;2023-04-02T00:15:45;11.38;78.38
71039;SHT30;58692;43.212;27.908;2023-04-02T00:18:14;11.26;78.94
71039;SHT30;58692;43.212;27.908;2023-04-02T00:20:43;11.26;78.87
71039;SHT30;58692;43.212;27.908;2023-04-02T00:23:12;11.18;79.27
71039;SHT30;58692;43.212;27.908;2023-04-02T00:25:41;11.17;79.57
71039;SHT30;58692;43.212;27.908;2023-04-02T00:28:15;11.10;79.48
71039;SHT30;58692;43.212;27.908;2023-04-02T00:30:51;11.04;79.64
71039;SHT30;58692;43.212;27.908;2023-04-02T00:33:21;11.00;79.56
71039;SHT30;58692;43.212;27.908;2023-04-02T00:35:49;10.97;79.75
71039;SHT30;58692;43.212;27.908;2023-04-02T00:38:21;10.92;79.50
71039;SHT30;58692;43.212;27.908;2023-04-02T00:40:50;10.89;79.56
71039;SHT30;58692;43.212;27.908;2023-04-02T00:43:17;10.89;79.76
71039;SHT30;58692;43.212;27.908;2023-04-02T00:45:46;10.89;79.33
71039;SHT30;58692;43.212;27.908;2023-04-02T00:51:00;10.84;78.61
71039;SHT30;58692;43.212;27.908;2023-04-02T00:53:33;10.83;78.27
71039;SHT30;58692;43.212;27.908;2023-04-02T00:56:00;10.80;78.35
71039;SHT30;58692;43.212;27.908;2023-04-02T00:58:32;10.80;78.31
71039;SHT30;58692;43.212;27.908;2023-04-02T01:00:59;10.76;78.31
71039;SHT30;58692;43.212;27.908;2023-04-02T01:03:31;10.72;77.82
71039;SHT30;58692;43.212;27.908;2023-04-02T01:06:07;10.72;78.53
71039;SHT30;58692;43.212;27.908;2023-04-02T01:22:25;10.53;79.22
71039;SHT30;58692;43.212;27.908;2023-04-02T01:24:56;10.45;79.20
71039;SHT30;58692;43.212;27.908;2023-04-02T01:27:27;10.46;79.33
71039;SHT30;58692;43.212;27.908;2023-04-02T01:29:57;10.48;79.06
71039;SHT30;58692;43.212;27.908;2023-04-02T01:32:25;10.45;79.10
71039;SHT30;58692;43.212;27.908;2023-04-02T01:34:52;10.50;79.06
71039;SHT30;58692;43.212;27.908;2023-04-02T01:43:04;10.42;79.18
71039;SHT30;58692;43.212;27.908;2023-04-02T01:45:31;10.43;79.04
71039;SHT30;58692;43.212;27.908;2023-04-02T01:48:01;10.39;79.25
71039;SHT30;58692;43.212;27.908;2023-04-02T01:50:33;10.45;78.96
71039;SHT30;58692;43.212;27.908;2023-04-02T01:53:04;10.43;78.80
71039;SHT30;58692;43.212;27.908;2023-04-02T01:58:15;10.45;79.02
71039;SHT30;58692;43.212;27.908;2023-04-02T02:00:48;10.42;79.07
71039;SHT30;58692;43.212;27.908;2023-04-02T02:03:14;10.38;79.11
71039;SHT30;58692;43.212;27.908;2023-04-02T02:05:41;10.38;79.31
71039;SHT30;58692;43.212;27.908;2023-04-02T02:08:19;10.43;79.07
71039;SHT30;58692;43.212;27.908;2023-04-02T02:10:48;10.42;78.98
71039;SHT30;58692;43.212;27.908;2023-04-02T02:13:14;10.38;79.10
71039;SHT30;58692;43.212;27.908;2023-04-02T02:15:40;10.43;79.17
71039;SHT30;58692;43.212;27.908;2023-04-02T02:18:06;10.42;79.06
71039;SHT30;58692;43.212;27.908;2023-04-02T02:20:34;10.46;79.17
71039;SHT30;58692;43.212;27.908;2023-04-02T02:23:00;10.46;79.26
71039;SHT30;58692;43.212;27.908;2023-04-02T02:25:31;10.53;79.69
71039;SHT30;58692;43.212;27.908;2023-04-02T02:28:15;10.52;79.36
71039;SHT30;58692;43.212;27.908;2023-04-02T02:30:46;10.53;78.95
71039;SHT30;58692;43.212;27.908;2023-04-02T02:33:32;10.55;78.35
71039;SHT30;58692;43.212;27.908;2023-04-02T02:36:03;10.56;78.22
71039;SHT30;58692;43.212;27.908;2023-04-02T02:41:18;10.60;78.39
71039;SHT30;58692;43.212;27.908;2023-04-02T02:43:55;10.65;78.19
71039;SHT30;58692;43.212;27.908;2023-04-02T02:46:22;10.65;77.90
71039;SHT30;58692;43.212;27.908;2023-04-02T02:48:51;10.72;77.91
71039;SHT30;58692;43.212;27.908;2023-04-02T02:51:25;10.70;77.84
71039;SHT30;58692;43.212;27.908;2023-04-02T02:53:55;10.72;77.74
71039;SHT30;58692;43.212;27.908;2023-04-02T02:56:22;10.67;77.93
71039;SHT30;58692;43.212;27.908;2023-04-02T02:58:50;10.66;77.71
71039;SHT30;58692;43.212;27.908;2023-04-02T03:01:16;10.66;77.99
71039;SHT30;58692;43.212;27.908;2023-04-02T03:03:43;10.72;78.06
71039;SHT30;58692;43.212;27.908;2023-04-02T03:06:15;10.63;78.00
71039;SHT30;58692;43.212;27.908;2023-04-02T03:08:51;10.60;78.28
71039;SHT30;58692;43.212;27.908;2023-04-02T03:11:39;10.69;78.53
71039;SHT30;58692;43.212;27.908;2023-04-02T03:14:28;10.63;78.35
71039;SHT30;58692;43.212;27.908;2023-04-02T03:17:01;10.59;78.55
71039;SHT30;58692;43.212;27.908;2023-04-02T03:19:42;10.66;78.44
71039;SHT30;58692;43.212;27.908;2023-04-02T03:22:15;10.62;78.48
71039;SHT30;58692;43.212;27.908;2023-04-02T03:24:54;10.60;78.42
71039;SHT30;58692;43.212;27.908;2023-04-02T03:27:25;10.63;78.32
71039;SHT30;58692;43.212;27.908;2023-04-02T03:32:41;10.69;78.60
71039;SHT30;58692;43.212;27.908;2023-04-02T03:35:23;10.72;78.31
71039;SHT30;58692;43.212;27.908;2023-04-02T03:37:59;10.73;78.25
71039;SHT30;58692;43.212;27.908;2023-04-02T03:40:32;10.76;78.22
71039;SHT30;58692;43.212;27.908;2023-04-02T03:43:00;10.76;78.23
71039;SHT30;58692;43.212;27.908;2023-04-02T03:45:35;10.77;78.06
71039;SHT30;58692;43.212;27.908;2023-04-02T03:53:28;10.77;77.89
71039;SHT30;58692;43.212;27.908;2023-04-02T03:55:57;10.83;77.89
71039;SHT30;58692;43.212;27.908;2023-04-02T03:58:31;10.80;77.71
71039;SHT30;58692;43.212;27.908;2023-04-02T04:03:44;10.83;77.69
71039;SHT30;58692;43.212;27.908;2023-04-02T04:06:27;10.90;77.65
71039;SHT30;58692;43.212;27.908;2023-04-02T04:08:58;10.81;77.96
71039;SHT30;58692;43.212;27.908;2023-04-02T04:11:30;10.92;77.82
71039;SHT30;58692;43.212;27.908;2023-04-02T04:14:20;11.03;77.27
71039;SHT30;58692;43.212;27.908;2023-04-02T04:19:39;11.48;75.84
71039;SHT30;58692;43.212;27.908;2023-04-02T04:22:19;11.62;75.79
71039;SHT30;58692;43.212;27.908;2023-04-02T04:24:56;11.88;74.96
71039;SHT30;58692;43.212;27.908;2023-04-02T04:27:58;12.05;74.53
71039;SHT30;58692;43.212;27.908;2023-04-02T04:32:44;12.60;72.78
71039;SHT30;58692;43.212;27.908;2023-04-02T04:35:37;12.65;72.83
71039;SHT30;58692;43.212;27.908;2023-04-02T04:38:25;12.51;73.16
71039;SHT30;58692;43.212;27.908;2023-04-02T04:41:11;12.43;73.31
71039;SHT30;58692;43.212;27.908;2023-04-02T04:43:50;12.56;73.25
71039;SHT30;58692;43.212;27.908;2023-04-02T04:46:20;12.49;73.38
71039;SHT30;58692;43.212;27.908;2023-04-02T04:48:52;12.39;73.77
71039;SHT30;58692;43.212;27.908;2023-04-02T04:54:00;13.01;71.55
71039;SHT30;58692;43.212;27.908;2023-04-02T04:56:28;13.19;70.53
71039;SHT30;58692;43.212;27.908;2023-04-02T04:59:02;13.46;69.95
71039;SHT30;58692;43.212;27.908;2023-04-02T05:04:10;14.13;67.79
71039;SHT30;58692;43.212;27.908;2023-04-02T05:06:42;14.47;67.31
71039;SHT30;58692;43.212;27.908;2023-04-02T05:09:23;13.41;69.49
71039;SHT30;58692;43.212;27.908;2023-04-02T05:14:35;13.63;69.06
71039;SHT30;58692;43.212;27.908;2023-04-02T05:17:08;14.34;67.00
71039;SHT30;58692;43.212;27.908;2023-04-02T05:19:46;14.88;65.43
71039;SHT30;58692;43.212;27.908;2023-04-02T05:24:56;15.18;64.51
71039;SHT30;58692;43.212;27.908;2023-04-02T05:27:28;14.60;66.55
71039;SHT30;58692;43.212;27.908;2023-04-02T05:30:04;15.01;65.27
71039;SHT30;58692;43.212;27.908;2023-04-02T05:32:34;15.76;63.43
71039;SHT30;58692;43.212;27.908;2023-04-02T05:35:02;15.80;62.14
71039;SHT30;58692;43.212;27.908;2023-04-02T05:37:30;15.87;62.42
71039;SHT30;58692;43.212;27.908;2023-04-02T05:39:59;15.89;62.63
71039;SHT30;58692;43.212;27.908;2023-04-02T05:42:31;15.43;63.42
71039;SHT30;58692;43.212;27.908;2023-04-02T05:45:24;15.67;62.93
71039;SHT30;58692;43.212;27.908;2023-04-02T05:47:54;16.31;61.49
71039;SHT30;58692;43.212;27.908;2023-04-02T05:50:32;15.52;63.61
71039;SHT30;58692;43.212;27.908;2023-04-02T05:58:38;14.99;65.38
71039;SHT30;58692;43.212;27.908;2023-04-02T06:01:13;14.79;65.40
71039;SHT30;58692;43.212;27.908;2023-04-02T06:06:51;14.36;67.64
71039;SHT30;58692;43.212;27.908;2023-04-02T06:12:09;14.34;67.39
71039;SHT30;58692;43.212;27.908;2023-04-02T06:14:37;14.57;66.62
71039;SHT30;58692;43.212;27.908;2023-04-02T06:17:03;14.57;66.42
71039;SHT30;58692;43.212;27.908;2023-04-02T06:19:32;15.15;65.41
71039;SHT30;58692;43.212;27.908;2023-04-02T06:24:54;16.64;61.11
71039;SHT30;58692;43.212;27.908;2023-04-02T06:27:22;16.59;60.61
71039;SHT30;58692;43.212;27.908;2023-04-02T06:29:50;17.54;58.07
71039;SHT30;58692;43.212;27.908;2023-04-02T06:32:22;17.75;58.16
71039;SHT30;58692;43.212;27.908;2023-04-02T06:34:49;18.00;56.44
71039;SHT30;58692;43.212;27.908;2023-04-02T06:37:23;18.15;55.51
71039;SHT30;58692;43.212;27.908;2023-04-02T06:39:52;19.04;53.83
71039;SHT30;58692;43.212;27.908;2023-04-02T06:42:23;19.02;54.06
71039;SHT30;58692;43.212;27.908;2023-04-02T06:44:50;19.31;52.98
71039;SHT30;58692;43.212;27.908;2023-04-02T06:55:31;17.44;57.24
71039;SHT30;58692;43.212;27.908;2023-04-02T06:57:57;17.53;57.42
71039;SHT30;58692;43.212;27.908;2023-04-02T07:00:40;17.12;58.38
71039;SHT30;58692;43.212;27.908;2023-04-02T07:03:13;17.20;58.78
71039;SHT30;58692;43.212;27.908;2023-04-02T07:05:42;17.49;58.55
71039;SHT30;58692;43.212;27.908;2023-04-02T07:08:07;17.57;57.64
71039;SHT30;58692;43.212;27.908;2023-04-02T07:10:33;17.66;57.64
71039;SHT30;58692;43.212;27.908;2023-04-02T07:12:59;17.67;57.45
71039;SHT30;58692;43.212;27.908;2023-04-02T07:15:27;17.03;58.52
71039;SHT30;58692;43.212;27.908;2023-04-02T07:17:52;16.62;59.71
71039;SHT30;58692;43.212;27.908;2023-04-02T07:20:34;16.52;60.17
71039;SHT30;58692;43.212;27.908;2023-04-02T07:23:02;16.37;60.16
71039;SHT30;58692;43.212;27.908;2023-04-02T07:25:28;16.20;60.33
71039;SHT30;58692;43.212;27.908;2023-04-02T07:27:54;15.97;60.98
71039;SHT30;58692;43.212;27.908;2023-04-02T07:30:20;16.13;60.56
71039;SHT30;58692;43.212;27.908;2023-04-02T07:32:46;16.05;61.33
71039;SHT30;58692;43.212;27.908;2023-04-02T07:35:11;15.89;61.44
71039;SHT30;58692;43.212;27.908;2023-04-02T07:37:37;15.76;61.97
71039;SHT30;58692;43.212;27.908;2023-04-02T07:40:06;15.97;61.59
71039;SHT30;58692;43.212;27.908;2023-04-02T07:42:36;15.82;61.91
71039;SHT30;58692;43.212;27.908;2023-04-02T07:45:01;15.86;62.06
71039;SHT30;58692;43.212;27.908;2023-04-02T07:47:27;15.73;62.55
71039;SHT30;58692;43.212;27.908;2023-04-02T07:49:53;15.60;63.34
71039;SHT30;58692;43.212;27.908;2023-04-02T07:52:19;15.47;63.44
71039;SHT30;58692;43.212;27.908;2023-04-02T07:54:46;15.46;63.74
71039;SHT30;58692;43.212;27.908;2023-04-02T07:57:11;15.16;64.37
71039;SHT30;58692;43.212;27.908;2023-04-02T07:59:37;14.88;65.22
71039;SHT30;58692;43.212;27.908;2023-04-02T08:02:02;14.70;65.53
71039;SHT30;58692;43.212;27.908;2023-04-02T08:04:28;14.81;65.53
71039;SHT30;58692;43.212;27.908;2023-04-02T08:06:54;14.78;65.66
71039;SHT30;58692;43.212;27.908;2023-04-02T08:09:19;14.75;65.64
71039;SHT30;58692;43.212;27.908;2023-04-02T08:11:45;14.64;66.08
71039;SHT30;58692;43.212;27.908;2023-04-02T08:14:10;14.58;66.28
71039;SHT30;58692;43.212;27.908;2023-04-02T08:16:49;14.58;66.41
71039;SHT30;58692;43.212;27.908;2023-04-02T08:19:16;14.48;66.08
71039;SHT30;58692;43.212;27.908;2023-04-02T08:21:42;14.48;66.28
71039;SHT30;58692;43.212;27.908;2023-04-02T08:24:07;14.48;66.24
71039;SHT30;58692;43.212;27.908;2023-04-02T08:26:33;14.48;66.00
71039;SHT30;58692;43.212;27.908;2023-04-02T08:28:58;14.54;65.80
71039;SHT30;58692;43.212;27.908;2023-04-02T08:31:24;14.57;65.66
71039;SHT30;58692;43.212;27.908;2023-04-02T08:33:49;14.68;65.68
71039;SHT30;58692;43.212;27.908;2023-04-02T08:36:16;14.82;65.32
71039;SHT30;58692;43.212;27.908;2023-04-02T08:38:42;15.09;64.80
71039;SHT30;58692;43.212;27.908;2023-04-02T08:41:17;15.19;64.37
71039;SHT30;58692;43.212;27.908;2023-04-02T08:46:41;15.31;64.01
71039;SHT30;58692;43.212;27.908;2023-04-02T08:49:14;15.31;63.63
71039;SHT30;58692;43.212;27.908;2023-04-02T08:51:41;15.49;63.12
71039;SHT30;58692;43.212;27.908;2023-04-02T08:59:14;15.63;63.02
71039;SHT30;58692;43.212;27.908;2023-04-02T09:01:53;15.56;63.22
71039;SHT30;58692;43.212;27.908;2023-04-02T09:04:22;15.67;63.08
71039;SHT30;58692;43.212;27.908;2023-04-02T09:06:51;15.70;63.03
71039;SHT30;58692;43.212;27.908;2023-04-02T09:09:18;15.70;63.22
71039;SHT30;58692;43.212;27.908;2023-04-02T09:14:23;15.70;63.06
71039;SHT30;58692;43.212;27.908;2023-04-02T09:16:54;15.70;62.69
71039;SHT30;58692;43.212;27.908;2023-04-02T09:19:30;15.71;62.71
71039;SHT30;58692;43.212;27.908;2023-04-02T09:22:08;15.79;62.38
71039;SHT30;58692;43.212;27.908;2023-04-02T09:24:38;15.77;62.51
71039;SHT30;58692;43.212;27.908;2023-04-02T09:27:15;15.80;62.74
71039;SHT30;58692;43.212;27.908;2023-04-02T09:29:43;16.03;62.29
71039;SHT30;58692;43.212;27.908;2023-04-02T09:37:45;16.83;60.61
71039;SHT30;58692;43.212;27.908;2023-04-02T09:40:27;16.99;60.27
71039;SHT30;58692;43.212;27.908;2023-04-02T09:43:12;16.93;59.86
71039;SHT30;58692;43.212;27.908;2023-04-02T09:45:40;17.09;59.18
71039;SHT30;58692;43.212;27.908;2023-04-02T09:48:22;17.02;59.29
71039;SHT30;58692;43.212;27.908;2023-04-02T09:50:49;17.00;59.27
71039;SHT30;58692;43.212;27.908;2023-04-02T09:53:29;17.51;57.87
71039;SHT30;58692;43.212;27.908;2023-04-02T09:58:36;17.82;57.22
71039;SHT30;58692;43.212;27.908;2023-04-02T10:01:02;19.07;54.84
71039;SHT30;58692;43.212;27.908;2023-04-02T10:03:30;19.75;52.63
71039;SHT30;58692;43.212;27.908;2023-04-02T10:06:09;21.00;50.15
71039;SHT30;58692;43.212;27.908;2023-04-02T10:08:37;21.66;48.44
71039;SHT30;58692;43.212;27.908;2023-04-02T10:11:08;21.61;48.19
71039;SHT30;58692;43.212;27.908;2023-04-02T10:14:02;20.37;50.38
71039;SHT30;58692;43.212;27.908;2023-04-02T10:16:32;19.38;52.31
71039;SHT30;58692;43.212;27.908;2023-04-02T10:19:12;19.26;53.55
71039;SHT30;58692;43.212;27.908;2023-04-02T10:21:41;18.93;54.29
71039;SHT30;58692;43.212;27.908;2023-04-02T10:24:11;18.73;54.52
71039;SHT30;58692;43.212;27.908;2023-04-02T10:35:29;18.00;57.13
71039;SHT30;58692;43.212;27.908;2023-04-02T10:40:39;17.95;57.75
71039;SHT30;58692;43.212;27.908;2023-04-02T10:51:45;17.57;58.72
71039;SHT30;58692;43.212;27.908;2023-04-02T10:57:03;18.05;57.89
71039;SHT30;58692;43.212;27.908;2023-04-02T10:59:33;18.15;57.83
71039;SHT30;58692;43.212;27.908;2023-04-02T11:02:00;18.22;57.81
71039;SHT30;58692;43.212;27.908;2023-04-02T11:04:31;18.48;56.79
71039;SHT30;58692;43.212;27.908;2023-04-02T11:07:13;18.31;56.76
71039;SHT30;58692;43.212;27.908;2023-04-02T11:09:43;18.21;57.07
71039;SHT30;58692;43.212;27.908;2023-04-02T11:12:36;17.94;57.14
71039;SHT30;58692;43.212;27.908;2023-04-02T11:15:03;17.64;57.94
71039;SHT30;58692;43.212;27.908;2023-04-02T11:17:30;17.57;58.57
71039;SHT30;58692;43.212;27.908;2023-04-02T11:23:11;18.02;56.77
71039;SHT30;58692;43.212;27.908;2023-04-02T11:25:39;18.73;55.33
71039;SHT30;58692;43.212;27.908;2023-04-02T11:28:24;18.41;55.31
71039;SHT30;58692;43.212;27.908;2023-04-02T11:30:51;18.42;54.55
71039;SHT30;58692;43.212;27.908;2023-04-02T11:35:59;18.32;54.46
71039;SHT30;58692;43.212;27.908;2023-04-02T11:40:55;18.33;54.50
71039;SHT30;58692;43.212;27.908;2023-04-02T11:48:33;18.87;52.91
71039;SHT30;58692;43.212;27.908;2023-04-02T11:51:27;19.48;51.44
71039;SHT30;58692;43.212;27.908;2023-04-02T11:54:00;20.51;48.32
71039;SHT30;58692;43.212;27.908;2023-04-02T12:02:05;22.07;44.75
71039;SHT30;58692;43.212;27.908;2023-04-02T12:10:19;22.56;43.17
71039;SHT30;58692;43.212;27.908;2023-04-02T12:12:45;21.20;45.58
71039;SHT30;58692;43.212;27.908;2023-04-02T12:20:37;20.08;48.33
71039;SHT30;58692;43.212;27.908;2023-04-02T12:23:03;19.54;49.35
71039;SHT30;58692;43.212;27.908;2023-04-02T12:28:13;19.04;51.23
71039;SHT30;58692;43.212;27.908;2023-04-02T12:30:42;19.23;50.97
71039;SHT30;58692;43.212;27.908;2023-04-02T12:33:25;19.18;50.68
71039;SHT30;58692;43.212;27.908;2023-04-02T12:35:56;19.06;51.44
71039;SHT30;58692;43.212;27.908;2023-04-02T12:38:26;18.76;53.02
71039;SHT30;58692;43.212;27.908;2023-04-02T12:40:56;18.66;53.78
71039;SHT30;58692;43.212;27.908;2023-04-02T12:43:30;18.57;54.26
71039;SHT30;58692;43.212;27.908;2023-04-02T12:45:59;18.46;55.73
71039;SHT30;58692;43.212;27.908;2023-04-02T12:48:26;18.24;57.24
71039;SHT30;58692;43.212;27.908;2023-04-02T12:50:52;18.11;57.47
71039;SHT30;58692;43.212;27.908;2023-04-02T12:53:21;18.06;57.62
71039;SHT30;58692;43.212;27.908;2023-04-02T12:55:50;18.15;57.42
71039;SHT30;58692;43.212;27.908;2023-04-02T13:01:15;18.41;56.68
71039;SHT30;58692;43.212;27.908;2023-04-02T13:06:25;18.39;56.89
71039;SHT30;58692;43.212;27.908;2023-04-02T13:08:52;18.26;57.26
71039;SHT30;58692;43.212;27.908;2023-04-02T13:11:18;18.32;57.46
71039;SHT30;58692;43.212;27.908;2023-04-02T13:13:46;18.43;57.00
71039;SHT30;58692;43.212;27.908;2023-04-02T13:18:40;18.59;55.46
71039;SHT30;58692;43.212;27.908;2023-04-02T13:21:22;18.59;55.06
71039;SHT30;58692;43.212;27.908;2023-04-02T13:23:49;18.38;55.47
71039;SHT30;58692;43.212;27.908;2023-04-02T13:26:18;18.33;55.90
71039;SHT30;58692;43.212;27.908;2023-04-02T13:29:02;18.31;55.93
71039;SHT30;58692;43.212;27.908;2023-04-02T13:31:30;18.28;56.14
71039;SHT30;58692;43.212;27.908;2023-04-02T13:33:56;18.24;55.83
71039;SHT30;58692;43.212;27.908;2023-04-02T13:36:22;18.39;55.60
71039;SHT30;58692;43.212;27.908;2023-04-02T13:38:48;18.38;55.43
71039;SHT30;58692;43.212;27.908;2023-04-02T13:43:45;18.18;55.82
71039;SHT30;58692;43.212;27.908;2023-04-02T13:46:18;18.13;56.40
71039;SHT30;58692;43.212;27.908;2023-04-02T13:48:44;18.25;56.34
71039;SHT30;58692;43.212;27.908;2023-04-02T13:51:15;18.29;55.86
71039;SHT30;58692;43.212;27.908;2023-04-02T13:53:42;18.25;56.00
71039;SHT30;58692;43.212;27.908;2023-04-02T13:56:09;18.15;56.27
71039;SHT30;58692;43.212;27.908;2023-04-02T13:58:34;18.26;56.30
71039;SHT30;58692;43.212;27.908;2023-04-02T14:01:00;18.29;55.89
71039;SHT30;58692;43.212;27.908;2023-04-02T14:03:26;18.41;55.69
71039;SHT30;58692;43.212;27.908;2023-04-02T14:05:56;18.43;55.08
71039;SHT30;58692;43.212;27.908;2023-04-02T14:08:39;18.49;54.80
71039;SHT30;58692;43.212;27.908;2023-04-02T14:30:16;18.16;56.80
71039;SHT30;58692;43.212;27.908;2023-04-02T14:32:53;18.06;57.29
71039;SHT30;58692;43.212;27.908;2023-04-02T14:35:26;18.15;57.02
71039;SHT30;58692;43.212;27.908;2023-04-02T14:40:49;18.08;57.11
71039;SHT30;58692;43.212;27.908;2023-04-02T14:46:04;18.00;56.42
71039;SHT30;58692;43.212;27.908;2023-04-02T14:51:19;18.05;56.19
71039;SHT30;58692;43.212;27.908;2023-04-02T14:54:16;18.16;56.02
71039;SHT30;58692;43.212;27.908;2023-04-02T14:56:48;18.09;55.74
71039;SHT30;58692;43.212;27.908;2023-04-02T15:02:03;18.06;56.15
71039;SHT30;58692;43.212;27.908;2023-04-02T15:04:36;18.04;56.21
71039;SHT30;58692;43.212;27.908;2023-04-02T15:07:13;17.90;56.30
71039;SHT30;58692;43.212;27.908;2023-04-02T15:09:45;17.88;56.24
71039;SHT30;58692;43.212;27.908;2023-04-02T15:12:18;17.90;56.07
71039;SHT30;58692;43.212;27.908;2023-04-02T15:14:49;17.85;55.83
71039;SHT30;58692;43.212;27.908;2023-04-02T15:17:20;17.90;56.09
71039;SHT30;58692;43.212;27.908;2023-04-02T15:19:45;17.91;55.97
71039;SHT30;58692;43.212;27.908;2023-04-02T15:22:33;17.82;55.66
71039;SHT30;58692;43.212;27.908;2023-04-02T15:30:37;17.97;55.09
71039;SHT30;58692;43.212;27.908;2023-04-02T15:35:51;17.94;56.30
71039;SHT30;58692;43.212;27.908;2023-04-02T15:38:23;17.77;57.27
71039;SHT30;58692;43.212;27.908;2023-04-02T15:43:43;17.63;57.59
71039;SHT30;58692;43.212;27.908;2023-04-02T15:46:34;17.57;58.25
71039;SHT30;58692;43.212;27.908;2023-04-02T15:54:52;17.63;58.29
71039;SHT30;58692;43.212;27.908;2023-04-02T16:08:43;17.43;58.10
71039;SHT30;58692;43.212;27.908;2023-04-02T16:11:13;17.49;58.20
71039;SHT30;58692;43.212;27.908;2023-04-02T16:13:40;17.41;58.53
71039;SHT30;58692;43.212;27.908;2023-04-02T16:18:48;17.34;58.47
71039;SHT30;58692;43.212;27.908;2023-04-02T16:21:20;17.37;58.62
71039;SHT30;58692;43.212;27.908;2023-04-02T16:23:47;17.37;58.80
71039;SHT30;58692;43.212;27.908;2023-04-02T16:34:46;17.27;59.66
71039;SHT30;58692;43.212;27.908;2023-04-02T16:40:35;17.13;59.61
71039;SHT30;58692;43.212;27.908;2023-04-02T16:45:54;16.58;62.26
71039;SHT30;58692;43.212;27.908;2023-04-02T16:51:08;14.71;69.36
71039;SHT30;58692;43.212;27.908;2023-04-02T16:53:43;14.31;70.94
71039;SHT30;58692;43.212;27.908;2023-04-02T16:59:15;14.09;71.79
71039;SHT30;58692;43.212;27.908;2023-04-02T17:02:53;14.09;72.01
71039;SHT30;58692;43.212;27.908;2023-04-02T17:07:30;13.77;73.22
71039;SHT30;58692;43.212;27.908;2023-04-02T17:10:13;13.82;73.24
71039;SHT30;58692;43.212;27.908;2023-04-02T17:12:45;13.79;73.35
71039;SHT30;58692;43.212;27.908;2023-04-02T17:15:17;13.79;73.61
71039;SHT30;58692;43.212;27.908;2023-04-02T17:17:43;13.70;73.79
71039;SHT30;58692;43.212;27.908;2023-04-02T17:20:17;13.59;74.37
71039;SHT30;58692;43.212;27.908;2023-04-02T17:22:45;13.65;74.14
71039;SHT30;58692;43.212;27.908;2023-04-02T17:25:22;13.58;74.46
71039;SHT30;58692;43.212;27.908;2023-04-02T17:27:52;13.70;74.11
71039;SHT30;58692;43.212;27.908;2023-04-02T17:33:10;13.63;74.34
71039;SHT30;58692;43.212;27.908;2023-04-02T17:41:42;13.73;74.15
71039;SHT30;58692;43.212;27.908;2023-04-02T17:52:17;13.52;74.84
71039;SHT30;58692;43.212;27.908;2023-04-02T17:55:17;13.62;74.63
71039;SHT30;58692;43.212;27.908;2023-04-02T17:58:05;13.61;74.51
71039;SHT30;58692;43.212;27.908;2023-04-02T18:06:20;13.56;74.85
71039;SHT30;58692;43.212;27.908;2023-04-02T18:08:52;13.61;74.62
71039;SHT30;58692;43.212;27.908;2023-04-02T18:11:40;13.63;74.43
71039;SHT30;58692;43.212;27.908;2023-04-02T18:17:00;13.75;74.17
71039;SHT30;58692;43.212;27.908;2023-04-02T18:19:34;13.69;74.34
71039;SHT30;58692;43.212;27.908;2023-04-02T18:22:28;13.66;74.41
71039;SHT30;58692;43.212;27.908;2023-04-02T18:25:18;13.59;74.54
71039;SHT30;58692;43.212;27.908;2023-04-02T18:27:53;13.69;74.30
71039;SHT30;58692;43.212;27.908;2023-04-02T18:36:00;13.99;73.27
71039;SHT30;58692;43.212;27.908;2023-04-02T18:38:43;13.85;73.72
71039;SHT30;58692;43.212;27.908;2023-04-02T18:44:24;13.67;74.20
71039;SHT30;58692;43.212;27.908;2023-04-02T18:47:02;13.75;74.16
71039;SHT30;58692;43.212;27.908;2023-04-02T18:49:33;13.66;74.43
71039;SHT30;58692;43.212;27.908;2023-04-02T18:52:03;13.67;74.39
71039;SHT30;58692;43.212;27.908;2023-04-02T18:54:38;13.56;74.60
71039;SHT30;58692;43.212;27.908;2023-04-02T18:57:12;13.61;74.63
71039;SHT30;58692;43.212;27.908;2023-04-02T19:02:39;13.72;74.22
71039;SHT30;58692;43.212;27.908;2023-04-02T19:07:52;13.80;73.77
71039;SHT30;58692;43.212;27.908;2023-04-02T19:10:35;13.85;73.49
71039;SHT30;58692;43.212;27.908;2023-04-02T19:13:01;13.86;73.40
71039;SHT30;58692;43.212;27.908;2023-04-02T19:15:42;13.79;73.35
71039;SHT30;58692;43.212;27.908;2023-04-02T19:21:08;13.65;73.87
71039;SHT30;58692;43.212;27.908;2023-04-02T19:26:25;13.66;73.59
71039;SHT30;58692;43.212;27.908;2023-04-02T19:34:25;13.75;73.54
71039;SHT30;58692;43.212;27.908;2023-04-02T19:36:56;13.73;73.48
71039;SHT30;58692;43.212;27.908;2023-04-02T19:44:35;13.80;73.07
71039;SHT30;58692;43.212;27.908;2023-04-02T19:47:02;13.86;72.91
71039;SHT30;58692;43.212;27.908;2023-04-02T19:49:32;13.87;72.85
71039;SHT30;58692;43.212;27.908;2023-04-02T19:51:58;13.90;72.66
71039;SHT30;58692;43.212;27.908;2023-04-02T19:54:23;13.85;72.71
71039;SHT30;58692;43.212;27.908;2023-04-02T19:56:49;13.83;72.43
71039;SHT30;58692;43.212;27.908;2023-04-02T19:59:14;13.67;72.88
71039;SHT30;58692;43.212;27.908;2023-04-02T20:01:40;13.63;73.07
71039;SHT30;58692;43.212;27.908;2023-04-02T20:04:06;13.61;73.19
71039;SHT30;58692;43.212;27.908;2023-04-02T20:06:32;13.65;73.11
71039;SHT30;58692;43.212;27.908;2023-04-02T20:08:58;13.66;73.06
71039;SHT30;58692;43.212;27.908;2023-04-02T20:11:25;13.65;72.92
71039;SHT30;58692;43.212;27.908;2023-04-02T20:13:52;13.61;73.01
71039;SHT30;58692;43.212;27.908;2023-04-02T20:16:18;13.63;72.90
71039;SHT30;58692;43.212;27.908;2023-04-02T20:18:44;13.59;72.79
71039;SHT30;58692;43.212;27.908;2023-04-02T20:21:10;13.66;72.73
71039;SHT30;58692;43.212;27.908;2023-04-02T20:23:36;13.61;72.72
71039;SHT30;58692;43.212;27.908;2023-04-02T20:26:02;13.61;72.68
71039;SHT30;58692;43.212;27.908;2023-04-02T20:28:28;13.66;72.62
71039;SHT30;58692;43.212;27.908;2023-04-02T20:31:08;13.69;72.47
71039;SHT30;58692;43.212;27.908;2023-04-02T20:33:34;13.73;72.40
71039;SHT30;58692;43.212;27.908;2023-04-02T20:36:03;13.70;72.28
71039;SHT30;58692;43.212;27.908;2023-04-02T20:38:30;13.63;72.27
71039;SHT30;58692;43.212;27.908;2023-04-02T20:40:56;13.58;72.52
71039;SHT30;58692;43.212;27.908;2023-04-02T20:43:22;13.48;72.88
71039;SHT30;58692;43.212;27.908;2023-04-02T20:45:56;13.49;72.75
71039;SHT30;58692;43.212;27.908;2023-04-02T20:48:22;13.56;72.42
71039;SHT30;58692;43.212;27.908;2023-04-02T20:50:49;13.62;72.34